Time;durP1;ratioP1;P1;durP2;ratioP2;P2;SDS_P1;SDS_P2;PMS_P1;PMS_P2;Temp;Humidity;BMP_temperature;BMP_pressure;BME280_temperature;BME280_humidity;BME280_pressure;Samples;Min_cycle;Max_cycle;Signal;HPM_P1;HPM_P2
2023/09/29 00:01:46;;;;;;;5.17;3.73;;;17.00;99.90;;;;;;4154251;28;20557;-74
2023/09/29 00:03:47;;;;;;;5.50;3.40;;;17.00;99.90;;;;;;4154179;28;20211;-74
2023/09/29 00:05:50;;;;;;;6.53;4.23;;;16.90;99.90;;;;;;4157260;28;20221;-74
2023/09/29 00:07:52;;;;;;;6.10;4.20;;;16.90;99.90;;;;;;4154504;28;20230;-76
2023/09/29 00:09:54;;;;;;;8.63;4.47;;;16.80;99.90;;;;;;4155092;28;20234;-76
2023/09/29 00:11:56;;;;;;;6.10;4.00;;;16.80;99.90;;;;;;4159937;28;20210;-76
2023/09/29 00:13:59;;;;;;;6.60;4.03;;;16.70;99.90;;;;;;4150246;28;20566;-76
2023/09/29 00:16:01;;;;;;;5.60;3.90;;;16.70;99.90;;;;;;4154229;28;20217;-76
2023/09/29 00:18:05;;;;;;;5.67;3.57;;;16.70;99.90;;;;;;4155255;28;20579;-76
2023/09/29 00:20:17;;;;;;;8.67;3.93;;;16.70;99.90;;;;;;4155110;28;20238;-76
2023/09/29 00:22:19;;;;;;;8.27;4.00;;;16.70;99.90;;;;;;4153004;28;20264;-76
2023/09/29 00:24:21;;;;;;;5.73;3.97;;;16.70;99.90;;;;;;4152815;28;20205;-76
2023/09/29 00:26:22;;;;;;;6.87;4.00;;;16.70;99.90;;;;;;4154919;28;20221;-76
2023/09/29 00:28:24;;;;;;;8.07;4.67;;;16.60;99.90;;;;;;4155495;28;20221;-76
2023/09/29 00:30:27;;;;;;;6.10;3.77;;;16.60;99.90;;;;;;4154386;28;20214;-74
2023/09/29 00:32:29;;;;;;;8.73;4.73;;;16.50;99.90;;;;;;4155156;28;20206;-74
2023/09/29 00:34:36;;;;;;;6.83;4.13;;;16.50;99.90;;;;;;4157588;28;20202;-74
2023/09/29 00:36:38;;;;;;;6.03;4.17;;;16.50;99.90;;;;;;4153702;28;20205;-74
2023/09/29 00:38:40;;;;;;;5.57;4.10;;;16.50;99.90;;;;;;4153086;28;20245;-75
2023/09/29 00:40:43;;;;;;;6.13;4.00;;;16.50;99.90;;;;;;4152898;28;20336;-74
2023/09/29 00:42:46;;;;;;;4.97;4.07;;;16.50;99.90;;;;;;4156285;28;20206;-74
2023/09/29 00:44:49;;;;;;;6.73;4.50;;;16.40;99.90;;;;;;4156718;28;20235;-74
2023/09/29 00:46:51;;;;;;;7.80;4.33;;;16.40;99.90;;;;;;4154503;28;20206;-74
2023/09/29 00:48:54;;;;;;;6.97;4.37;;;16.40;99.90;;;;;;4166926;28;20893;-74
2023/09/29 00:50:58;;;;;;;7.93;4.30;;;16.50;99.90;;;;;;4169298;28;20311;-74
2023/09/29 00:53:05;;;;;;;8.37;4.57;;;16.40;99.90;;;;;;4154726;28;20208;-74
2023/09/29 00:55:11;;;;;;;8.07;4.20;;;16.40;99.90;;;;;;4153056;28;20685;-74
2023/09/29 00:57:13;;;;;;;5.20;3.63;;;16.30;99.90;;;;;;4154538;28;21579;-74
2023/09/29 00:59:15;;;;;;;6.87;4.23;;;16.30;99.90;;;;;;4154070;28;20231;-74
2023/09/29 01:01:19;;;;;;;9.33;4.53;;;16.30;99.90;;;;;;4156964;28;20275;-75
2023/09/29 01:03:22;;;;;;;7.00;4.30;;;16.30;99.90;;;;;;4156061;28;20300;-75
2023/09/29 01:05:23;;;;;;;7.63;3.90;;;16.20;99.90;;;;;;4155465;28;20236;-74
2023/09/29 01:07:26;;;;;;;5.50;4.00;;;16.20;99.90;;;;;;4152899;28;20819;-74
2023/09/29 01:09:28;;;;;;;9.33;4.47;;;16.20;99.90;;;;;;4155641;28;20278;-74
2023/09/29 01:11:30;;;;;;;5.83;3.67;;;16.20;99.90;;;;;;4154219;28;20294;-74
2023/09/29 01:13:32;;;;;;;9.00;4.63;;;16.10;99.90;;;;;;4155528;28;20241;-74
2023/09/29 01:15:34;;;;;;;9.27;4.43;;;16.20;99.90;;;;;;4152250;28;20209;-76
2023/09/29 01:17:36;;;;;;;9.30;4.93;;;16.10;99.90;;;;;;4152137;28;20206;-76
2023/09/29 01:19:41;;;;;;;7.20;4.47;;;16.10;99.90;;;;;;4153140;28;20227;-75
2023/09/29 01:21:44;;;;;;;7.70;4.27;;;16.10;99.90;;;;;;4153606;28;20204;-74
2023/09/29 01:23:48;;;;;;;7.37;4.03;;;16.10;99.90;;;;;;4153822;28;20241;-74
2023/09/29 01:25:52;;;;;;;7.13;4.57;;;16.00;99.90;;;;;;4152472;28;20892;-74
2023/09/29 01:27:54;;;;;;;7.70;4.40;;;16.00;99.90;;;;;;4154554;28;20251;-74
2023/09/29 01:29:56;;;;;;;6.23;3.80;;;16.00;99.90;;;;;;4153899;28;20321;-74
2023/09/29 01:31:59;;;;;;;7.13;4.30;;;15.90;99.90;;;;;;4152002;28;20657;-76
2023/09/29 01:34:04;;;;;;;8.87;4.10;;;16.00;99.90;;;;;;4153177;28;20649;-76
2023/09/29 01:36:08;;;;;;;5.93;3.97;;;15.90;99.90;;;;;;4159390;28;20920;-77
2023/09/29 01:38:10;;;;;;;11.70;4.53;;;15.90;99.90;;;;;;4157072;28;20204;-76
2023/09/29 01:40:14;;;;;;;8.13;4.50;;;15.90;99.90;;;;;;4159099;28;20235;-76
2023/09/29 01:42:15;;;;;;;7.13;4.33;;;15.90;99.90;;;;;;4156782;28;20214;-76
2023/09/29 01:44:17;;;;;;;9.80;4.50;;;15.90;99.90;;;;;;4159137;28;20615;-76
2023/09/29 01:46:19;;;;;;;8.83;4.00;;;15.80;99.90;;;;;;4157845;28;20224;-76
2023/09/29 01:48:21;;;;;;;5.90;4.00;;;15.80;99.90;;;;;;4157942;28;20212;-76
2023/09/29 01:50:24;;;;;;;7.80;4.17;;;15.80;99.90;;;;;;4159989;28;20257;-76
2023/09/29 01:52:25;;;;;;;7.60;4.40;;;15.80;99.90;;;;;;4153290;28;20255;-76
2023/09/29 01:54:28;;;;;;;6.00;4.37;;;15.70;99.90;;;;;;4159732;28;20204;-76
2023/09/29 01:56:31;;;;;;;9.73;4.40;;;15.70;99.90;;;;;;4159400;28;20283;-74
2023/09/29 01:58:33;;;;;;;9.10;4.80;;;15.70;99.90;;;;;;4158950;28;20207;-74
2023/09/29 02:00:35;;;;;;;9.30;4.80;;;15.60;99.90;;;;;;4155855;28;20210;-74
2023/09/29 02:02:36;;;;;;;9.47;4.53;;;15.70;99.90;;;;;;4155458;28;20223;-74
2023/09/29 02:04:39;;;;;;;11.30;4.83;;;15.70;99.90;;;;;;4155743;28;20265;-74
2023/09/29 02:06:42;;;;;;;6.73;4.30;;;15.60;99.90;;;;;;4154448;28;20224;-74
2023/09/29 02:08:44;;;;;;;7.60;4.10;;;15.60;99.90;;;;;;4157678;28;20241;-75
2023/09/29 02:10:48;;;;;;;10.07;4.37;;;15.60;99.90;;;;;;4156448;28;20215;-74
2023/09/29 02:12:57;;;;;;;6.00;4.20;;;15.50;99.90;;;;;;4158942;28;20215;-74
2023/09/29 02:14:59;;;;;;;6.67;4.13;;;15.50;99.90;;;;;;4156679;28;20218;-74
2023/09/29 02:17:01;;;;;;;7.03;4.17;;;15.50;99.90;;;;;;4155620;28;20223;-74
2023/09/29 02:19:04;;;;;;;6.87;4.53;;;15.50;99.90;;;;;;4154173;28;20564;-74
2023/09/29 02:21:09;;;;;;;5.47;4.20;;;15.40;99.90;;;;;;4156038;28;20207;-74
2023/09/29 02:23:10;;;;;;;8.67;4.77;;;15.40;99.90;;;;;;4154591;28;20212;-74
2023/09/29 02:25:15;;;;;;;8.30;4.30;;;15.40;99.90;;;;;;4156057;28;20225;-74
2023/09/29 02:27:17;;;;;;;6.27;4.23;;;15.40;99.90;;;;;;4161924;28;20204;-74
2023/09/29 02:29:20;;;;;;;7.20;4.67;;;15.40;99.90;;;;;;4158045;28;20293;-74
2023/09/29 02:31:23;;;;;;;7.67;4.43;;;15.30;99.90;;;;;;4158150;28;20610;-74
2023/09/29 02:33:25;;;;;;;6.70;4.40;;;15.30;99.90;;;;;;4153128;28;20208;-74
2023/09/29 02:35:28;;;;;;;7.63;4.60;;;15.30;99.90;;;;;;4157392;28;20202;-74
2023/09/29 02:37:30;;;;;;;8.90;4.63;;;15.30;99.90;;;;;;4159564;28;20200;-74
2023/09/29 02:39:31;;;;;;;6.13;4.67;;;15.20;99.90;;;;;;4156551;28;20782;-74
2023/09/29 02:41:32;;;;;;;6.37;4.60;;;15.20;99.90;;;;;;4155557;28;20228;-74
2023/09/29 02:43:34;;;;;;;8.60;4.77;;;15.30;99.90;;;;;;4152516;28;20230;-74
2023/09/29 02:45:40;;;;;;;9.33;5.07;;;15.30;99.90;;;;;;4155061;28;20227;-74
2023/09/29 02:47:42;;;;;;;6.47;4.37;;;15.30;99.90;;;;;;4154968;28;20208;-74
2023/09/29 02:49:43;;;;;;;6.77;4.90;;;15.20;99.90;;;;;;4155745;28;20250;-75
2023/09/29 02:51:45;;;;;;;6.80;4.37;;;15.20;99.90;;;;;;4157341;28;20212;-75
2023/09/29 02:53:48;;;;;;;7.97;4.80;;;15.20;99.90;;;;;;4154807;28;20200;-75
2023/09/29 02:55:51;;;;;;;5.27;4.23;;;15.20;99.90;;;;;;4154324;28;20204;-75
2023/09/29 02:57:53;;;;;;;5.70;4.20;;;15.20;99.90;;;;;;4155745;28;20264;-75
2023/09/29 02:59:57;;;;;;;6.57;4.67;;;15.10;99.90;;;;;;4152628;28;20251;-74
2023/09/29 03:02:01;;;;;;;6.43;4.33;;;15.10;99.90;;;;;;4157394;28;20212;-75
2023/09/29 03:04:03;;;;;;;8.43;4.53;;;15.10;99.90;;;;;;4160398;28;20211;-75
2023/09/29 03:06:07;;;;;;;5.67;3.93;;;15.10;99.90;;;;;;4155628;28;20219;-75
2023/09/29 03:08:09;;;;;;;5.70;3.97;;;15.10;99.90;;;;;;4157727;28;20257;-75
2023/09/29 03:10:20;;;;;;;4.73;3.90;;;15.10;99.90;;;;;;4153604;28;20303;-75
2023/09/29 03:12:21;;;;;;;6.07;4.17;;;15.00;99.90;;;;;;4155873;28;20203;-75
2023/09/29 03:14:23;;;;;;;5.30;4.00;;;15.10;99.90;;;;;;4153693;28;20681;-75
2023/09/29 03:16:26;;;;;;;6.30;4.17;;;15.00;99.90;;;;;;4155798;28;20759;-75
2023/09/29 03:18:29;;;;;;;7.53;4.20;;;15.00;99.90;;;;;;4152329;28;20258;-75
2023/09/29 03:20:32;;;;;;;5.43;3.73;;;15.00;99.90;;;;;;4155956;28;20322;-75
2023/09/29 03:22:36;;;;;;;6.33;4.30;;;15.00;99.90;;;;;;4157274;28;20207;-75
2023/09/29 03:24:38;;;;;;;6.47;4.70;;;14.90;99.90;;;;;;4156210;28;20257;-75
2023/09/29 03:26:40;;;;;;;6.57;3.97;;;15.00;99.90;;;;;;4159714;28;20661;-75
2023/09/29 03:28:42;;;;;;;7.73;4.30;;;15.00;99.90;;;;;;4153946;28;20204;-75
2023/09/29 03:30:44;;;;;;;6.40;4.50;;;14.90;99.90;;;;;;4155258;28;20204;-75
2023/09/29 03:32:46;;;;;;;8.07;4.23;;;14.90;99.90;;;;;;4155248;28;20651;-75
2023/09/29 03:34:50;;;;;;;7.03;4.53;;;14.90;99.90;;;;;;4156572;28;20255;-74
2023/09/29 03:36:52;;;;;;;6.63;4.50;;;14.90;99.90;;;;;;4155451;28;20207;-75
2023/09/29 03:38:54;;;;;;;6.97;4.43;;;14.90;99.90;;;;;;4153993;28;20314;-75
2023/09/29 03:40:57;;;;;;;6.30;4.07;;;14.90;99.90;;;;;;4152699;28;20215;-75
2023/09/29 03:42:59;;;;;;;5.47;4.30;;;14.90;99.90;;;;;;4157659;28;20211;-75
2023/09/29 03:45:05;;;;;;;7.90;4.37;;;14.80;99.90;;;;;;4155384;28;20208;-75
2023/09/29 03:47:07;;;;;;;7.53;4.60;;;14.80;99.90;;;;;;4155222;28;20230;-75
2023/09/29 03:49:11;;;;;;;7.03;4.47;;;14.80;99.90;;;;;;4153064;28;20239;-75
2023/09/29 03:51:21;;;;;;;9.30;4.63;;;14.80;99.90;;;;;;4153097;28;20235;-75
2023/09/29 03:53:26;;;;;;;6.30;4.17;;;14.80;99.90;;;;;;4153271;28;20207;-75
2023/09/29 03:55:28;;;;;;;5.50;4.07;;;14.80;99.90;;;;;;4157088;28;20576;-75
2023/09/29 03:57:28;;;;;;;7.77;4.83;;;14.80;99.90;;;;;;4157180;28;20280;-75
2023/09/29 03:59:31;;;;;;;5.97;4.07;;;14.80;99.90;;;;;;4151943;28;20660;-75
2023/09/29 04:01:34;;;;;;;5.80;4.00;;;14.80;99.90;;;;;;4155886;28;20208;-75
2023/09/29 04:03:36;;;;;;;7.10;4.90;;;14.70;99.90;;;;;;4154798;28;20203;-75
2023/09/29 04:05:38;;;;;;;6.37;4.60;;;14.80;99.90;;;;;;4155115;28;20295;-75
2023/09/29 04:07:42;;;;;;;6.47;4.80;;;14.70;99.90;;;;;;4158413;28;20253;-75
2023/09/29 04:09:44;;;;;;;8.37;5.07;;;14.70;99.90;;;;;;4151940;28;20281;-75
2023/09/29 04:11:45;;;;;;;8.60;5.77;;;14.70;99.90;;;;;;4166920;28;20600;-75
2023/09/29 04:13:47;;;;;;;8.47;4.70;;;14.70;99.90;;;;;;4154850;28;20219;-75
2023/09/29 04:15:48;;;;;;;8.63;4.83;;;14.70;99.90;;;;;;4155731;28;20265;-75
2023/09/29 04:17:50;;;;;;;7.23;4.50;;;14.70;99.90;;;;;;4155245;28;20273;-75
2023/09/29 04:19:51;;;;;;;10.27;4.73;;;14.70;99.90;;;;;;4156179;28;20238;-75
2023/09/29 04:21:53;;;;;;;7.20;4.90;;;14.70;99.90;;;;;;4157309;28;20191;-75
2023/09/29 04:23:57;;;;;;;7.73;4.90;;;14.80;99.90;;;;;;4157023;28;20204;-75
2023/09/29 04:25:59;;;;;;;7.10;5.00;;;14.70;99.90;;;;;;4156459;28;20687;-75
2023/09/29 04:28:01;;;;;;;8.80;5.17;;;14.60;99.90;;;;;;4153484;28;20617;-75
2023/09/29 04:30:05;;;;;;;7.73;5.23;;;14.70;99.90;;;;;;4153075;28;20300;-75
2023/09/29 04:32:07;;;;;;;8.03;4.90;;;14.70;99.90;;;;;;4156892;28;20229;-75
2023/09/29 04:34:08;;;;;;;9.03;5.00;;;14.70;99.90;;;;;;4153088;28;20621;-75
2023/09/29 04:36:11;;;;;;;6.17;4.63;;;14.60;99.90;;;;;;4152210;28;20206;-75
2023/09/29 04:38:13;;;;;;;8.77;5.23;;;14.70;99.90;;;;;;4152159;28;20717;-74
2023/09/29 04:40:16;;;;;;;6.87;5.37;;;14.60;99.90;;;;;;4155280;28;20304;-75
2023/09/29 04:42:18;;;;;;;7.43;5.13;;;14.60;99.90;;;;;;4154616;28;20264;-75
2023/09/29 04:44:20;;;;;;;7.00;4.93;;;14.60;99.90;;;;;;4152931;28;20207;-75
2023/09/29 04:46:23;;;;;;;9.63;5.27;;;14.60;99.90;;;;;;4155353;28;21026;-75
2023/09/29 04:48:25;;;;;;;7.80;5.23;;;14.60;99.90;;;;;;4157478;28;20266;-75
2023/09/29 04:50:27;;;;;;;8.70;5.57;;;14.60;99.90;;;;;;4153618;28;20260;-75
2023/09/29 04:52:28;;;;;;;7.60;5.27;;;14.60;99.90;;;;;;4155449;28;20207;-75
2023/09/29 04:54:29;;;;;;;8.67;5.43;;;14.70;99.90;;;;;;4151976;28;20262;-75
2023/09/29 04:56:33;;;;;;;10.07;5.73;;;14.70;99.90;;;;;;4158504;28;20710;-75
2023/09/29 04:58:35;;;;;;;7.23;5.30;;;14.70;99.90;;;;;;4153601;28;20234;-75
2023/09/29 05:00:37;;;;;;;9.03;5.80;;;14.70;99.90;;;;;;4151242;28;20215;-75
2023/09/29 05:02:39;;;;;;;8.57;5.57;;;14.70;99.90;;;;;;4153896;28;20293;-75
2023/09/29 05:04:41;;;;;;;9.87;4.97;;;14.70;99.90;;;;;;4151921;28;20223;-74
2023/09/29 05:06:43;;;;;;;10.27;5.37;;;14.70;99.90;;;;;;4151618;28;20216;-74
2023/09/29 05:08:45;;;;;;;7.70;5.20;;;14.70;99.90;;;;;;4150525;28;20323;-74
2023/09/29 05:10:47;;;;;;;8.53;5.37;;;14.70;99.90;;;;;;4157056;28;20214;-74
2023/09/29 05:12:50;;;;;;;7.33;4.80;;;14.70;99.90;;;;;;4152671;28;20200;-74
2023/09/29 05:14:52;;;;;;;8.90;5.80;;;14.70;99.90;;;;;;4155057;28;20208;-74
2023/09/29 05:16:54;;;;;;;9.03;5.17;;;14.70;99.90;;;;;;4153893;28;20203;-74
2023/09/29 05:18:57;;;;;;;7.07;5.10;;;14.70;99.90;;;;;;4152605;28;20239;-74
2023/09/29 05:20:59;;;;;;;9.97;5.43;;;14.80;99.90;;;;;;4155897;28;20208;-74
2023/09/29 05:23:01;;;;;;;13.50;5.67;;;14.70;99.90;;;;;;4148431;28;20208;-74
2023/09/29 05:25:03;;;;;;;7.87;5.33;;;14.80;99.90;;;;;;4152951;28;20215;-74
2023/09/29 05:27:05;;;;;;;7.97;5.27;;;14.80;99.90;;;;;;4156898;28;20239;-74
2023/09/29 05:29:08;;;;;;;7.83;5.30;;;14.80;99.90;;;;;;4154753;28;20226;-75
2023/09/29 05:31:09;;;;;;;10.70;5.20;;;14.90;99.90;;;;;;4154653;28;20218;-74
2023/09/29 05:33:11;;;;;;;8.20;5.83;;;14.90;99.90;;;;;;4156502;28;20219;-74
2023/09/29 05:35:13;;;;;;;7.90;5.77;;;14.90;99.90;;;;;;4159364;28;20269;-74
2023/09/29 05:37:15;;;;;;;8.13;5.50;;;14.90;99.90;;;;;;4158816;28;20737;-75
2023/09/29 05:39:17;;;;;;;9.90;5.50;;;14.90;99.90;;;;;;4159320;28;20773;-75
2023/09/29 05:41:19;;;;;;;7.87;5.03;;;14.90;99.90;;;;;;4154820;28;20641;-75
2023/09/29 05:43:20;;;;;;;6.83;4.87;;;15.00;99.90;;;;;;4159101;28;20255;-74
2023/09/29 05:45:24;;;;;;;9.47;5.10;;;15.00;99.90;;;;;;4157534;28;20682;-74
2023/09/29 05:47:26;;;;;;;8.07;5.30;;;15.00;99.90;;;;;;4157206;28;20729;-74
2023/09/29 05:49:28;;;;;;;7.20;4.90;;;15.00;99.90;;;;;;4156220;28;20228;-75
2023/09/29 05:51:30;;;;;;;8.40;5.10;;;15.10;99.90;;;;;;4156750;28;20208;-74
2023/09/29 05:53:31;;;;;;;9.30;5.60;;;15.10;99.90;;;;;;4155499;28;20246;-74
2023/09/29 05:55:34;;;;;;;8.03;5.00;;;15.10;99.90;;;;;;4156293;28;20196;-75
2023/09/29 05:57:37;;;;;;;8.53;4.90;;;15.20;99.90;;;;;;4158198;28;20295;-75
2023/09/29 05:59:39;;;;;;;10.47;6.00;;;15.20;99.90;;;;;;4161043;28;20219;-75
2023/09/29 06:01:43;;;;;;;9.70;5.47;;;15.30;99.90;;;;;;4158816;28;20262;-75
2023/09/29 06:03:45;;;;;;;8.87;5.70;;;15.40;99.90;;;;;;4157452;28;20207;-75
2023/09/29 06:05:47;;;;;;;10.40;5.50;;;15.40;99.90;;;;;;4156482;28;20891;-75
2023/09/29 06:07:49;;;;;;;9.63;5.33;;;15.50;99.90;;;;;;4160665;28;20226;-75
2023/09/29 06:09:51;;;;;;;9.73;5.37;;;15.50;99.90;;;;;;4156599;28;20721;-75
2023/09/29 06:11:53;;;;;;;8.90;4.93;;;15.60;99.90;;;;;;4156775;28;20212;-74
2023/09/29 06:13:55;;;;;;;11.17;4.90;;;15.60;99.90;;;;;;4155350;28;20200;-74
2023/09/29 06:15:57;;;;;;;9.97;5.13;;;15.60;99.90;;;;;;4156912;28;20235;-74
2023/09/29 06:18:00;;;;;;;12.03;5.80;;;15.60;99.90;;;;;;4157137;28;20201;-75
2023/09/29 06:20:03;;;;;;;10.57;5.80;;;15.70;99.90;;;;;;4155538;28;21547;-74
2023/09/29 06:22:05;;;;;;;11.87;5.67;;;15.70;99.90;;;;;;4159648;28;20703;-74
2023/09/29 06:24:08;;;;;;;13.17;5.63;;;15.70;99.90;;;;;;4156334;28;20238;-75
2023/09/29 06:26:10;;;;;;;9.30;5.33;;;15.70;99.90;;;;;;4156089;28;20222;-75
2023/09/29 06:28:12;;;;;;;10.40;6.50;;;15.80;99.90;;;;;;4154699;28;20263;-74
2023/09/29 06:30:13;;;;;;;13.60;6.80;;;15.80;99.90;;;;;;4155576;28;20293;-75
2023/09/29 06:32:15;;;;;;;12.43;7.17;;;15.80;99.90;;;;;;4157304;28;20211;-76
2023/09/29 06:34:18;;;;;;;11.70;6.80;;;15.80;99.90;;;;;;4155668;28;20926;-74
2023/09/29 06:36:20;;;;;;;13.40;7.20;;;15.90;99.90;;;;;;4154356;28;20200;-74
2023/09/29 06:38:22;;;;;;;12.30;6.60;;;15.90;99.90;;;;;;4158022;28;20275;-74
2023/09/29 06:40:24;;;;;;;11.00;5.97;;;16.00;99.90;;;;;;4156921;28;20650;-77
2023/09/29 06:42:26;;;;;;;11.70;6.67;;;16.10;99.90;;;;;;4155050;28;20237;-75
2023/09/29 06:44:28;;;;;;;10.43;6.57;;;16.10;99.90;;;;;;4157446;28;20270;-75
2023/09/29 06:46:29;;;;;;;12.43;5.97;;;16.20;99.90;;;;;;4155302;28;20201;-76
2023/09/29 06:48:31;;;;;;;10.93;5.60;;;16.30;99.90;;;;;;4157983;28;20683;-76
2023/09/29 06:50:34;;;;;;;9.57;5.93;;;16.30;99.90;;;;;;4155657;28;20577;-75
2023/09/29 06:52:36;;;;;;;10.00;5.97;;;16.40;99.90;;;;;;4164865;28;20212;-74
2023/09/29 06:54:38;;;;;;;11.83;5.67;;;16.50;99.90;;;;;;4156490;28;20207;-76
2023/09/29 06:56:40;;;;;;;8.27;5.60;;;16.60;99.90;;;;;;4162469;28;20197;-76
2023/09/29 06:58:41;;;;;;;8.20;5.60;;;16.60;99.90;;;;;;4154655;28;20201;-75
2023/09/29 07:00:44;;;;;;;10.33;5.43;;;16.70;99.90;;;;;;4157031;28;20256;-75
2023/09/29 07:02:45;;;;;;;9.43;5.87;;;16.70;99.90;;;;;;4155751;28;20210;-75
2023/09/29 07:04:47;;;;;;;8.53;5.80;;;16.80;99.90;;;;;;4155375;28;20213;-75
2023/09/29 07:06:51;;;;;;;11.50;5.60;;;16.80;99.90;;;;;;4158959;28;20573;-75
2023/09/29 07:08:53;;;;;;;10.23;6.00;;;16.90;99.90;;;;;;4157545;28;20242;-76
2023/09/29 07:10:57;;;;;;;11.37;6.67;;;16.90;99.90;;;;;;4152663;28;20217;-75
2023/09/29 07:12:58;;;;;;;9.33;6.23;;;17.00;99.90;;;;;;4151706;28;20204;-76
2023/09/29 07:15:01;;;;;;;9.80;5.50;;;17.10;99.90;;;;;;4154882;28;20201;-76
2023/09/29 07:17:03;;;;;;;9.97;5.47;;;17.20;99.90;;;;;;4155244;28;20251;-74
2023/09/29 07:19:05;;;;;;;8.13;5.07;;;17.20;99.90;;;;;;4153659;28;20262;-74
2023/09/29 07:21:07;;;;;;;8.40;5.03;;;17.40;99.90;;;;;;4156493;28;20264;-74
2023/09/29 07:23:10;;;;;;;10.50;5.70;;;17.40;99.90;;;;;;4155236;28;20761;-75
2023/09/29 07:25:14;;;;;;;8.80;5.10;;;17.50;99.90;;;;;;4155656;28;20218;-75
2023/09/29 07:27:16;;;;;;;9.10;4.73;;;17.50;99.90;;;;;;4156816;28;20272;-75
2023/09/29 07:29:18;;;;;;;6.77;4.30;;;17.60;99.90;;;;;;4153813;28;20238;-75
2023/09/29 07:31:20;;;;;;;10.37;5.37;;;17.70;99.90;;;;;;4156329;28;20199;-75
2023/09/29 07:33:22;;;;;;;15.63;6.47;;;17.80;99.90;;;;;;4153022;28;20258;-75
2023/09/29 07:35:24;;;;;;;10.37;5.20;;;17.80;99.90;;;;;;4157291;28;20211;-75
2023/09/29 07:37:26;;;;;;;17.03;8.90;;;17.90;99.90;;;;;;4155136;28;20300;-76
2023/09/29 07:39:29;;;;;;;16.27;9.27;;;18.00;99.90;;;;;;4155565;28;20713;-75
2023/09/29 07:41:31;;;;;;;13.63;6.63;;;18.10;99.90;;;;;;4157671;28;20215;-75
2023/09/29 07:43:33;;;;;;;9.20;5.37;;;18.10;99.90;;;;;;4155135;28;20210;-75
2023/09/29 07:45:35;;;;;;;9.23;4.83;;;18.20;99.90;;;;;;4153655;28;20202;-75
2023/09/29 07:47:41;;;;;;;9.00;4.93;;;18.30;99.90;;;;;;4155016;28;20283;-75
2023/09/29 07:49:42;;;;;;;8.47;4.37;;;18.40;99.90;;;;;;4158968;28;20650;-75
2023/09/29 07:51:44;;;;;;;6.90;4.50;;;18.40;99.90;;;;;;4153930;28;20207;-75
2023/09/29 07:53:46;;;;;;;9.43;4.70;;;18.50;99.90;;;;;;4154910;28;20200;-75
2023/09/29 07:55:50;;;;;;;8.67;4.30;;;18.60;99.90;;;;;;4155642;28;20215;-75
2023/09/29 07:57:53;;;;;;;6.73;4.40;;;18.70;99.90;;;;;;4156239;28;20203;-75
2023/09/29 07:59:55;;;;;;;6.73;4.23;;;18.80;99.90;;;;;;4154349;28;20597;-75
2023/09/29 08:01:58;;;;;;;7.03;4.43;;;18.90;99.90;;;;;;4155713;28;20289;-75
2023/09/29 08:04:00;;;;;;;8.83;4.60;;;18.90;99.90;;;;;;4153092;28;20204;-75
2023/09/29 08:06:02;;;;;;;11.00;4.13;;;19.00;99.90;;;;;;4154545;28;20215;-75
2023/09/29 08:08:06;;;;;;;7.10;3.97;;;19.10;99.90;;;;;;4154462;28;20225;-75
2023/09/29 08:10:10;;;;;;;8.23;4.30;;;19.20;99.90;;;;;;4153566;28;20309;-77
2023/09/29 08:12:13;;;;;;;7.00;4.27;;;19.30;99.90;;;;;;4153639;28;20689;-75
2023/09/29 08:14:16;;;;;;;9.10;5.03;;;19.40;99.90;;;;;;4153043;28;20200;-74
2023/09/29 08:16:18;;;;;;;7.50;4.40;;;19.50;99.90;;;;;;4154547;28;20215;-77
2023/09/29 08:18:20;;;;;;;6.27;4.50;;;19.50;99.90;;;;;;4155188;28;20211;-76
2023/09/29 08:20:22;;;;;;;10.07;5.37;;;19.60;99.90;;;;;;4152291;28;20970;-76
2023/09/29 08:22:25;;;;;;;9.80;5.03;;;19.70;99.90;;;;;;4152593;28;20979;-75
2023/09/29 08:24:27;;;;;;;6.37;4.00;;;19.70;99.90;;;;;;4153664;28;20596;-75
2023/09/29 08:26:29;;;;;;;7.17;4.47;;;19.80;99.90;;;;;;4157463;28;20266;-78
2023/09/29 08:28:32;;;;;;;7.77;5.87;;;19.80;99.90;;;;;;4154643;28;20312;-76
2023/09/29 08:30:34;;;;;;;11.40;7.13;;;19.90;99.90;;;;;;4154042;28;20208;-78
2023/09/29 08:32:37;;;;;;;9.00;5.20;;;19.90;99.90;;;;;;4156526;28;20203;-78
2023/09/29 08:34:39;;;;;;;10.13;4.40;;;20.00;99.90;;;;;;4158539;28;20209;-80
2023/09/29 08:36:41;;;;;;;9.10;3.80;;;20.10;99.90;;;;;;4158316;28;20200;-76
2023/09/29 08:38:43;;;;;;;6.33;3.90;;;20.10;99.90;;;;;;4158325;28;20208;-79
2023/09/29 08:40:48;;;;;;;7.80;3.63;;;20.20;99.90;;;;;;4156070;28;20248;-78
2023/09/29 08:42:50;;;;;;;7.93;3.77;;;20.30;99.90;;;;;;4156380;28;20211;-78
2023/09/29 08:44:54;;;;;;;5.60;3.40;;;20.30;99.90;;;;;;4160028;28;20216;-78
2023/09/29 08:47:01;;;;;;;7.90;3.80;;;20.40;99.90;;;;;;4160214;28;20213;-78
2023/09/29 08:49:04;;;;;;;7.10;3.90;;;20.50;99.90;;;;;;4161457;28;20298;-79
2023/09/29 08:51:07;;;;;;;8.50;3.77;;;20.60;99.90;;;;;;4160083;28;20239;-78
2023/09/29 08:53:11;;;;;;;5.53;3.10;;;20.70;99.90;;;;;;4166076;28;20839;-78
2023/09/29 08:55:14;;;;;;;6.80;3.40;;;20.80;99.90;;;;;;4164590;28;20210;-78
2023/09/29 08:57:16;;;;;;;7.63;3.93;;;21.00;99.90;;;;;;4162961;28;20201;-78
2023/09/29 08:59:18;;;;;;;10.40;3.63;;;21.10;99.90;;;;;;4158136;28;20879;-78
2023/09/29 09:01:21;;;;;;;6.53;3.40;;;21.20;99.90;;;;;;4157209;28;20296;-77
2023/09/29 09:03:23;;;;;;;7.87;3.40;;;21.40;99.90;;;;;;4153815;28;20211;-78
2023/09/29 09:05:26;;;;;;;7.70;3.50;;;21.50;99.90;;;;;;4158936;28;20209;-77
2023/09/29 09:07:28;;;;;;;6.03;3.63;;;21.60;99.90;;;;;;4162009;28;20322;-78
2023/09/29 09:09:30;;;;;;;5.57;3.87;;;21.70;99.90;;;;;;4162134;28;20239;-77
2023/09/29 09:11:41;;;;;;;8.00;3.83;;;21.80;99.90;;;;;;4159529;28;20200;-77
2023/09/29 09:13:43;;;;;;;9.27;3.70;;;21.90;99.90;;;;;;4162132;28;20237;-78
2023/09/29 09:15:55;;;;;;;6.73;3.63;;;22.00;99.90;;;;;;4161353;28;20199;-77
2023/09/29 09:17:59;;;;;;;8.17;3.50;;;22.10;99.90;;;;;;4158936;28;20207;-77
2023/09/29 09:20:01;;;;;;;7.57;3.30;;;22.10;99.90;;;;;;4159463;28;20235;-77
2023/09/29 09:22:13;;;;;;;5.23;3.17;;;22.30;99.90;;;;;;4162389;28;20269;-77
2023/09/29 09:24:19;;;;;;;6.70;3.27;;;22.50;99.90;;;;;;4164766;28;20260;-77
2023/09/29 09:26:21;;;;;;;6.50;3.30;;;22.50;99.90;;;;;;4157802;28;20281;-77
2023/09/29 09:28:23;;;;;;;4.30;2.90;;;22.60;99.90;;;;;;4159925;28;20928;-77
2023/09/29 09:30:24;;;;;;;5.23;3.03;;;22.70;99.90;;;;;;4156513;28;20207;-77
2023/09/29 09:32:27;;;;;;;5.97;3.10;;;22.80;99.90;;;;;;4163842;28;20195;-79
2023/09/29 09:34:35;;;;;;;6.17;3.63;;;22.80;99.90;;;;;;4164574;28;20245;-78
2023/09/29 09:36:45;;;;;;;5.23;3.20;;;22.90;99.90;;;;;;4161121;28;20558;-78
2023/09/29 09:38:49;;;;;;;7.50;3.20;;;22.90;99.90;;;;;;4158922;28;22392;-78
2023/09/29 09:40:51;;;;;;;5.93;3.10;;;22.90;99.90;;;;;;4160510;28;20202;-76
2023/09/29 09:42:54;;;;;;;7.20;3.30;;;22.90;99.90;;;;;;4157647;28;20192;-77
2023/09/29 09:44:57;;;;;;;7.27;3.40;;;22.90;99.90;;;;;;4158211;28;20207;-77
2023/09/29 09:47:00;;;;;;;6.30;3.13;;;22.90;99.90;;;;;;4158912;28;20662;-78
2023/09/29 09:49:14;;;;;;;9.43;3.10;;;23.00;99.90;;;;;;4157863;28;20235;-77
2023/09/29 09:51:27;;;;;;;5.00;3.07;;;23.00;99.90;;;;;;4152859;28;20207;-79
2023/09/29 09:53:33;;;;;;;6.80;3.27;;;23.10;99.90;;;;;;4155143;28;20238;-76
2023/09/29 09:55:40;;;;;;;5.60;3.17;;;23.20;99.90;;;;;;4160104;28;20729;-77
2023/09/29 09:57:45;;;;;;;4.20;2.70;;;23.20;99.90;;;;;;4157583;28;20207;-77
2023/09/29 09:59:48;;;;;;;5.03;2.93;;;23.30;99.90;;;;;;4156782;28;20706;-76
2023/09/29 10:01:51;;;;;;;6.63;2.70;;;23.40;99.90;;;;;;4156170;28;20211;-75
2023/09/29 10:03:54;;;;;;;7.33;3.03;;;23.40;99.90;;;;;;4158590;28;20268;-76
2023/09/29 10:05:57;;;;;;;5.27;2.80;;;23.50;99.90;;;;;;4161991;28;20265;-78
2023/09/29 10:08:05;;;;;;;5.90;2.70;;;23.60;99.90;;;;;;4175098;28;20782;-76
2023/09/29 10:10:09;;;;;;;6.77;2.93;;;23.60;99.90;;;;;;4158191;28;20239;-75
2023/09/29 10:12:25;;;;;;;4.63;2.80;;;23.70;99.90;;;;;;4155914;28;20216;-77
2023/09/29 10:14:27;;;;;;;5.23;3.10;;;23.80;99.90;;;;;;4157918;28;20765;-78
2023/09/29 10:16:29;;;;;;;6.00;3.13;;;23.80;99.90;;;;;;4156369;28;20951;-77
2023/09/29 10:18:32;;;;;;;6.17;3.17;;;23.90;99.90;;;;;;4158762;28;20261;-77
2023/09/29 10:20:35;;;;;;;6.10;3.37;;;24.00;99.90;;;;;;4157115;28;20207;-77
2023/09/29 10:22:37;;;;;;;4.07;3.10;;;24.10;99.90;;;;;;4157904;28;20265;-78
2023/09/29 10:24:40;;;;;;;5.23;2.93;;;24.20;99.90;;;;;;4154315;28;20301;-75
2023/09/29 10:26:43;;;;;;;4.57;3.13;;;24.30;99.90;;;;;;4154387;28;20207;-76
2023/09/29 10:28:46;;;;;;;5.63;2.93;;;24.40;99.90;;;;;;4156107;28;20227;-76
2023/09/29 10:30:48;;;;;;;6.93;3.03;;;24.50;99.90;;;;;;4155969;28;20236;-78
2023/09/29 10:32:50;;;;;;;9.43;3.00;;;24.60;99.90;;;;;;4157684;28;20213;-78
2023/09/29 10:35:01;;;;;;;6.43;3.00;;;24.60;99.90;;;;;;4156111;28;20211;-77
2023/09/29 10:37:03;;;;;;;4.63;2.80;;;24.70;99.90;;;;;;4155519;28;20646;-77
2023/09/29 10:39:05;;;;;;;7.73;2.80;;;24.80;99.90;;;;;;4156097;28;20280;-76